sensor_id;sensor_type;location;lat;lon;timestamp;pressure;altitude;pressure_sealevel;temperature;humidity
14204;BME280;7185;51.854;6.622;2023-03-25T00:01:14;99926.59;;;11.92;81.17
14204;BME280;7185;51.854;6.622;2023-03-25T00:03:46;99925.66;;;12.20;80.68
14204;BME280;7185;51.854;6.622;2023-03-25T00:06:19;99931.00;;;12.17;80.74
14204;BME280;7185;51.854;6.622;2023-03-25T00:08:51;99921.44;;;12.39;80.70
14204;BME280;7185;51.854;6.622;2023-03-25T00:11:22;99916.72;;;12.00;81.45
14204;BME280;7185;51.854;6.622;2023-03-25T00:13:55;99923.63;;;12.28;80.27
14204;BME280;7185;51.854;6.622;2023-03-25T00:16:27;99919.22;;;12.03;81.61
14204;BME280;7185;51.854;6.622;2023-03-25T00:18:59;99916.72;;;12.24;80.58
14204;BME280;7185;51.854;6.622;2023-03-25T00:21:31;99921.44;;;11.89;80.53
14204;BME280;7185;51.854;6.622;2023-03-25T00:24:03;99921.72;;;12.32;79.94
14204;BME280;7185;51.854;6.622;2023-03-25T00:26:35;99914.22;;;12.44;79.13
14204;BME280;7185;51.854;6.622;2023-03-25T00:29:13;99928.88;;;12.03;80.85
14204;BME280;7185;51.854;6.622;2023-03-25T00:31:45;99922.81;;;12.26;80.50
14204;BME280;7185;51.854;6.622;2023-03-25T00:34:17;99921.53;;;12.13;80.78
14204;BME280;7185;51.854;6.622;2023-03-25T00:36:49;99922.06;;;12.22;79.36
14204;BME280;7185;51.854;6.622;2023-03-25T00:39:21;99919.06;;;12.57;78.20
14204;BME280;7185;51.854;6.622;2023-03-25T00:41:52;99919.06;;;12.57;78.08
14204;BME280;7185;51.854;6.622;2023-03-25T00:44:27;99916.72;;;12.24;78.79
14204;BME280;7185;51.854;6.622;2023-03-25T00:47:00;99914.47;;;12.62;77.86
14204;BME280;7185;51.854;6.622;2023-03-25T00:49:31;99907.97;;;12.49;77.63
14204;BME280;7185;51.854;6.622;2023-03-25T00:52:05;99910.94;;;12.39;78.25
14204;BME280;7185;51.854;6.622;2023-03-25T00:54:36;99906.44;;;12.65;77.50
14204;BME280;7185;51.854;6.622;2023-03-25T00:57:10;99906.34;;;12.68;76.93
14204;BME280;7185;51.854;6.622;2023-03-25T00:59:43;99934.50;;;12.42;77.32
14204;BME280;7185;51.854;6.622;2023-03-25T01:02:15;99906.69;;;12.59;76.71
14204;BME280;7185;51.854;6.622;2023-03-25T01:04:48;99919.56;;;12.67;76.43
14204;BME280;7185;51.854;6.622;2023-03-25T01:07:20;99917.28;;;12.81;75.79
14204;BME280;7185;51.854;6.622;2023-03-25T01:09:52;99924.41;;;12.78;75.69
14204;BME280;7185;51.854;6.622;2023-03-25T01:12:24;99917.09;;;12.62;76.29
14204;BME280;7185;51.854;6.622;2023-03-25T01:14:57;99918.66;;;12.44;76.80
14204;BME280;7185;51.854;6.622;2023-03-25T01:17:29;99914.66;;;12.57;76.62
14204;BME280;7185;51.854;6.622;2023-03-25T01:20:01;99914.75;;;12.78;74.83
14204;BME280;7185;51.854;6.622;2023-03-25T01:22:35;99917.44;;;12.77;75.55
14204;BME280;7185;51.854;6.622;2023-03-25T01:25:07;99932.00;;;12.62;75.78
14204;BME280;7185;51.854;6.622;2023-03-25T01:27:39;99910.88;;;12.87;75.10
14204;BME280;7185;51.854;6.622;2023-03-25T01:30:13;99908.53;;;12.57;75.64
14204;BME280;7185;51.854;6.622;2023-03-25T01:32:45;99910.38;;;12.55;75.47
14204;BME280;7185;51.854;6.622;2023-03-25T01:35:17;99905.88;;;12.81;74.94
14204;BME280;7185;51.854;6.622;2023-03-25T01:37:48;99903.66;;;12.70;74.97
14204;BME280;7185;51.854;6.622;2023-03-25T01:40:23;99902.75;;;12.71;74.78
14204;BME280;7185;51.854;6.622;2023-03-25T01:42:55;99900.19;;;12.46;74.52
14204;BME280;7185;51.854;6.622;2023-03-25T01:45:29;99901.31;;;12.62;74.04
14204;BME280;7185;51.854;6.622;2023-03-25T01:48:05;99898.69;;;12.62;74.30
14204;BME280;7185;51.854;6.622;2023-03-25T01:50:42;99905.84;;;12.58;74.21
14204;BME280;7185;51.854;6.622;2023-03-25T01:53:15;99900.69;;;12.55;75.70
14204;BME280;7185;51.854;6.622;2023-03-25T01:55:47;99900.59;;;12.81;73.29
14204;BME280;7185;51.854;6.622;2023-03-25T01:58:22;99911.09;;;12.82;73.19
14204;BME280;7185;51.854;6.622;2023-03-25T02:00:57;99901.25;;;12.64;73.26
14204;BME280;7185;51.854;6.622;2023-03-25T02:03:30;99891.53;;;12.89;72.75
14204;BME280;7185;51.854;6.622;2023-03-25T02:06:09;99886.13;;;12.70;73.43
14204;BME280;7185;51.854;6.622;2023-03-25T02:08:44;99886.25;;;12.43;73.40
14204;BME280;7185;51.854;6.622;2023-03-25T02:11:16;99887.19;;;12.88;72.71
14204;BME280;7185;51.854;6.622;2023-03-25T02:13:48;99888.03;;;12.89;72.48
14204;BME280;7185;51.854;6.622;2023-03-25T02:16:26;99898.28;;;12.73;72.75
14204;BME280;7185;51.854;6.622;2023-03-25T02:19:26;99894.38;;;12.83;72.92
14204;BME280;7185;51.854;6.622;2023-03-25T02:22:33;99884.06;;;12.79;72.88
14204;BME280;7185;51.854;6.622;2023-03-25T02:25:22;99889.97;;;12.84;73.63
14204;BME280;7185;51.854;6.622;2023-03-25T02:28:13;99880.47;;;12.80;75.08
14204;BME280;7185;51.854;6.622;2023-03-25T02:31:09;99882.75;;;12.89;74.87
14204;BME280;7185;51.854;6.622;2023-03-25T02:34:09;99884.16;;;12.52;76.03
14204;BME280;7185;51.854;6.622;2023-03-25T02:37:16;99874.88;;;12.65;75.78
14204;BME280;7185;51.854;6.622;2023-03-25T02:39:54;99881.91;;;12.42;77.03
14204;BME280;7185;51.854;6.622;2023-03-25T02:42:33;99877.31;;;12.48;77.29
14204;BME280;7185;51.854;6.622;2023-03-25T02:45:11;99893.81;;;12.27;77.11
14204;BME280;7185;51.854;6.622;2023-03-25T02:47:48;99883.03;;;12.35;77.53
14204;BME280;7185;51.854;6.622;2023-03-25T02:50:24;99879.16;;;12.46;77.10
14204;BME280;7185;51.854;6.622;2023-03-25T02:52:59;99878.56;;;12.61;76.64
14204;BME280;7185;51.854;6.622;2023-03-25T02:55:33;99869.63;;;12.65;76.68
14204;BME280;7185;51.854;6.622;2023-03-25T02:58:09;99874.53;;;12.52;77.32
14204;BME280;7185;51.854;6.622;2023-03-25T03:00:42;99877.31;;;12.48;77.01
14204;BME280;7185;51.854;6.622;2023-03-25T03:03:14;99877.75;;;12.59;77.00
14204;BME280;7185;51.854;6.622;2023-03-25T03:05:49;99872.13;;;12.22;76.81
14204;BME280;7185;51.854;6.622;2023-03-25T03:11:25;99872.25;;;11.94;77.99
14204;BME280;7185;51.854;6.622;2023-03-25T03:16:57;99861.09;;;11.87;77.57
14204;BME280;7185;51.854;6.622;2023-03-25T03:19:36;99863.13;;;12.04;77.63
14204;BME280;7185;51.854;6.622;2023-03-25T03:22:17;99867.94;;;12.17;77.55
14204;BME280;7185;51.854;6.622;2023-03-25T03:24:56;99858.81;;;12.27;76.85
14204;BME280;7185;51.854;6.622;2023-03-25T03:27:36;99873.94;;;11.95;77.17
14204;BME280;7185;51.854;6.622;2023-03-25T03:30:11;99862.44;;;12.23;76.12
14204;BME280;7185;51.854;6.622;2023-03-25T03:32:48;99869.66;;;12.18;76.34
14204;BME280;7185;51.854;6.622;2023-03-25T03:35:26;99858.91;;;12.24;76.23
14204;BME280;7185;51.854;6.622;2023-03-25T03:38:01;99864.88;;;12.29;75.33
14204;BME280;7185;51.854;6.622;2023-03-25T03:40:37;99870.53;;;12.18;75.66
14204;BME280;7185;51.854;6.622;2023-03-25T03:43:14;99867.03;;;12.41;75.30
14204;BME280;7185;51.854;6.622;2023-03-25T03:45:47;99872.41;;;12.15;76.04
14204;BME280;7185;51.854;6.622;2023-03-25T03:48:24;99883.38;;;12.26;77.62
14204;BME280;7185;51.854;6.622;2023-03-25T03:51:00;99877.59;;;12.16;77.31
14204;BME280;7185;51.854;6.622;2023-03-25T03:53:35;99868.69;;;12.44;77.57
14204;BME280;7185;51.854;6.622;2023-03-25T03:56:09;99867.09;;;11.91;79.09
14204;BME280;7185;51.854;6.622;2023-03-25T03:58:44;99885.75;;;11.83;79.37
14204;BME280;7185;51.854;6.622;2023-03-25T04:01:20;99883.66;;;11.93;78.95
14204;BME280;7185;51.854;6.622;2023-03-25T04:03:59;99879.78;;;12.05;78.94
14204;BME280;7185;51.854;6.622;2023-03-25T04:06:36;99883.31;;;12.04;79.13
14204;BME280;7185;51.854;6.622;2023-03-25T04:09:15;99866.00;;;11.98;79.09
14204;BME280;7185;51.854;6.622;2023-03-25T04:11:59;99874.28;;;12.11;78.22
14204;BME280;7185;51.854;6.622;2023-03-25T04:14:35;99872.44;;;11.88;79.12
14204;BME280;7185;51.854;6.622;2023-03-25T04:17:07;99869.44;;;12.00;78.48
14204;BME280;7185;51.854;6.622;2023-03-25T04:19:39;99868.41;;;12.04;79.08
14204;BME280;7185;51.854;6.622;2023-03-25T04:22:10;99875.44;;;12.04;78.28
14204;BME280;7185;51.854;6.622;2023-03-25T04:24:43;99877.22;;;12.27;77.19
14204;BME280;7185;51.854;6.622;2023-03-25T04:27:14;99873.72;;;12.26;77.58
14204;BME280;7185;51.854;6.622;2023-03-25T04:29:48;99878.56;;;12.14;78.04
14204;BME280;7185;51.854;6.622;2023-03-25T04:32:21;99880.47;;;12.10;77.51
14204;BME280;7185;51.854;6.622;2023-03-25T04:34:52;99880.06;;;12.21;77.78
14204;BME280;7185;51.854;6.622;2023-03-25T04:37:27;99873.53;;;12.31;77.54
14204;BME280;7185;51.854;6.622;2023-03-25T04:39:58;99883.34;;;12.02;79.54
14204;BME280;7185;51.854;6.622;2023-03-25T04:42:30;99882.22;;;12.09;79.08
14204;BME280;7185;51.854;6.622;2023-03-25T04:45:08;99881.75;;;11.98;80.39
14204;BME280;7185;51.854;6.622;2023-03-25T04:47:46;99867.72;;;12.23;78.92
14204;BME280;7185;51.854;6.622;2023-03-25T04:50:20;99868.28;;;12.07;80.64
14204;BME280;7185;51.854;6.622;2023-03-25T04:52:52;99869.78;;;12.15;79.86
14204;BME280;7185;51.854;6.622;2023-03-25T04:55:26;99870.56;;;12.17;79.66
14204;BME280;7185;51.854;6.622;2023-03-25T04:57:59;99886.16;;;11.96;80.75
14204;BME280;7185;51.854;6.622;2023-03-25T05:00:32;99873.94;;;11.95;80.48
14204;BME280;7185;51.854;6.622;2023-03-25T05:03:05;99864.34;;;11.43;82.15
14204;BME280;7185;51.854;6.622;2023-03-25T05:05:37;99864.09;;;11.76;81.24
14204;BME280;7185;51.854;6.622;2023-03-25T05:08:09;99865.47;;;11.36;82.62
14204;BME280;7185;51.854;6.622;2023-03-25T05:10:41;99865.81;;;11.77;81.37
14204;BME280;7185;51.854;6.622;2023-03-25T05:13:13;99864.47;;;11.91;80.27
14204;BME280;7185;51.854;6.622;2023-03-25T05:15:46;99862.16;;;11.82;80.89
14204;BME280;7185;51.854;6.622;2023-03-25T05:18:18;99855.09;;;11.84;79.98
14204;BME280;7185;51.854;6.622;2023-03-25T05:20:49;99859.28;;;11.89;79.75
14204;BME280;7185;51.854;6.622;2023-03-25T05:23:22;99858.16;;;11.95;80.26
14204;BME280;7185;51.854;6.622;2023-03-25T05:25:54;99857.94;;;11.77;80.22
14204;BME280;7185;51.854;6.622;2023-03-25T05:28:25;99867.28;;;11.34;81.68
14204;BME280;7185;51.854;6.622;2023-03-25T05:30:58;99853.50;;;11.79;80.21
14204;BME280;7185;51.854;6.622;2023-03-25T05:33:30;99877.59;;;11.66;80.53
14204;BME280;7185;51.854;6.622;2023-03-25T05:36:03;99876.97;;;11.59;80.76
14204;BME280;7185;51.854;6.622;2023-03-25T05:38:35;99867.97;;;11.66;81.21
14204;BME280;7185;51.854;6.622;2023-03-25T05:41:07;99886.91;;;11.74;80.08
14204;BME280;7185;51.854;6.622;2023-03-25T05:43:41;99876.19;;;12.07;79.40
14204;BME280;7185;51.854;6.622;2023-03-25T05:46:17;99881.66;;;11.74;79.35
14204;BME280;7185;51.854;6.622;2023-03-25T05:48:49;99883.97;;;11.84;79.19
14204;BME280;7185;51.854;6.622;2023-03-25T05:51:24;99890.66;;;11.67;79.44
14204;BME280;7185;51.854;6.622;2023-03-25T05:53:58;99888.66;;;12.01;78.17
14204;BME280;7185;51.854;6.622;2023-03-25T05:56:30;99884.63;;;11.90;78.68
14204;BME280;7185;51.854;6.622;2023-03-25T05:59:02;99888.16;;;11.89;78.94
14204;BME280;7185;51.854;6.622;2023-03-25T06:01:36;99889.88;;;11.90;78.81
14204;BME280;7185;51.854;6.622;2023-03-25T06:04:08;99887.47;;;12.09;78.35
14204;BME280;7185;51.854;6.622;2023-03-25T06:06:44;99889.66;;;11.71;80.28
14204;BME280;7185;51.854;6.622;2023-03-25T06:09:16;99875.44;;;11.52;80.84
14204;BME280;7185;51.854;6.622;2023-03-25T06:11:48;99882.50;;;11.50;81.82
14204;BME280;7185;51.854;6.622;2023-03-25T06:14:22;99887.25;;;11.65;81.74
14204;BME280;7185;51.854;6.622;2023-03-25T06:16:56;99887.97;;;11.43;82.20
14204;BME280;7185;51.854;6.622;2023-03-25T06:19:27;99887.66;;;11.26;83.55
14204;BME280;7185;51.854;6.622;2023-03-25T06:21:59;99893.34;;;11.66;82.07
14204;BME280;7185;51.854;6.622;2023-03-25T06:24:31;99890.66;;;11.67;83.02
14204;BME280;7185;51.854;6.622;2023-03-25T06:27:04;99885.97;;;11.77;82.27
14204;BME280;7185;51.854;6.622;2023-03-25T06:29:37;99886.06;;;11.74;83.06
14204;BME280;7185;51.854;6.622;2023-03-25T06:32:12;99895.56;;;11.51;83.45
14204;BME280;7185;51.854;6.622;2023-03-25T06:34:45;99886.84;;;11.51;83.99
14204;BME280;7185;51.854;6.622;2023-03-25T06:37:16;99892.16;;;11.74;82.62
14204;BME280;7185;51.854;6.622;2023-03-25T06:39:48;99893.72;;;11.80;82.57
14204;BME280;7185;51.854;6.622;2023-03-25T06:42:20;99886.66;;;11.57;82.34
14204;BME280;7185;51.854;6.622;2023-03-25T06:44:52;99894.63;;;11.79;81.58
14204;BME280;7185;51.854;6.622;2023-03-25T06:47:25;99885.53;;;11.89;80.80
14204;BME280;7185;51.854;6.622;2023-03-25T06:49:57;99891.16;;;11.78;81.41
14204;BME280;7185;51.854;6.622;2023-03-25T06:52:31;99897.97;;;12.09;80.50
14204;BME280;7185;51.854;6.622;2023-03-25T06:55:04;99890.03;;;11.86;81.16
14204;BME280;7185;51.854;6.622;2023-03-25T06:57:36;99894.69;;;11.77;81.13
14204;BME280;7185;51.854;6.622;2023-03-25T07:00:08;99899.34;;;11.69;80.23
14204;BME280;7185;51.854;6.622;2023-03-25T07:02:42;99888.13;;;12.16;79.53
14204;BME280;7185;51.854;6.622;2023-03-25T07:05:14;99896.47;;;12.02;79.02
14204;BME280;7185;51.854;6.622;2023-03-25T07:07:46;99899.91;;;12.30;77.70
14204;BME280;7185;51.854;6.622;2023-03-25T07:10:18;99905.38;;;12.23;77.40
14204;BME280;7185;51.854;6.622;2023-03-25T07:12:52;99907.88;;;12.03;77.71
14204;BME280;7185;51.854;6.622;2023-03-25T07:15:26;99912.56;;;12.18;76.90
14204;BME280;7185;51.854;6.622;2023-03-25T07:18:01;99913.38;;;12.20;76.10
14204;BME280;7185;51.854;6.622;2023-03-25T07:20:35;99907.53;;;11.87;77.79
14204;BME280;7185;51.854;6.622;2023-03-25T07:23:10;99905.19;;;12.04;76.71
14204;BME280;7185;51.854;6.622;2023-03-25T07:25:43;99918.69;;;12.19;75.61
14204;BME280;7185;51.854;6.622;2023-03-25T07:28:21;99922.50;;;12.34;75.00
14204;BME280;7185;51.854;6.622;2023-03-25T07:31:08;99903.16;;;12.36;74.21
14204;BME280;7185;51.854;6.622;2023-03-25T07:33:46;99908.22;;;12.41;74.70
14204;BME280;7185;51.854;6.622;2023-03-25T07:36:18;99922.94;;;12.47;73.84
14204;BME280;7185;51.854;6.622;2023-03-25T07:38:53;99937.91;;;12.68;71.65
14204;BME280;7185;51.854;6.622;2023-03-25T07:41:26;99921.94;;;13.19;71.12
14204;BME280;7185;51.854;6.622;2023-03-25T07:44:08;99922.16;;;13.57;69.66
14204;BME280;7185;51.854;6.622;2023-03-25T07:46:43;99913.25;;;13.17;69.84
14204;BME280;7185;51.854;6.622;2023-03-25T07:49:18;99921.94;;;13.19;68.78
14204;BME280;7185;51.854;6.622;2023-03-25T07:51:50;99926.44;;;13.37;68.87
14204;BME280;7185;51.854;6.622;2023-03-25T07:54:24;99921.06;;;12.96;69.94
14204;BME280;7185;51.854;6.622;2023-03-25T07:56:57;99920.41;;;12.91;70.02
14204;BME280;7185;51.854;6.622;2023-03-25T07:59:32;99912.84;;;12.82;69.55
14204;BME280;7185;51.854;6.622;2023-03-25T08:02:04;99916.13;;;13.11;69.69
14204;BME280;7185;51.854;6.622;2023-03-25T08:05:08;99910.78;;;13.34;68.67
14204;BME280;7185;51.854;6.622;2023-03-25T08:07:44;99918.84;;;13.07;69.00
14204;BME280;7185;51.854;6.622;2023-03-25T08:10:16;99918.25;;;13.23;68.16
14204;BME280;7185;51.854;6.622;2023-03-25T08:12:51;99917.34;;;13.46;68.05
14204;BME280;7185;51.854;6.622;2023-03-25T08:15:23;99927.56;;;13.10;68.61
14204;BME280;7185;51.854;6.622;2023-03-25T08:17:56;99932.16;;;13.27;68.98
14204;BME280;7185;51.854;6.622;2023-03-25T08:20:31;99935.22;;;13.16;70.09
14204;BME280;7185;51.854;6.622;2023-03-25T08:23:06;99936.13;;;13.15;70.51
14204;BME280;7185;51.854;6.622;2023-03-25T08:25:40;99934.78;;;13.27;69.54
14204;BME280;7185;51.854;6.622;2023-03-25T08:30:58;99930.28;;;13.52;68.41
14204;BME280;7185;51.854;6.622;2023-03-25T08:33:31;99952.63;;;13.20;68.96
14204;BME280;7185;51.854;6.622;2023-03-25T08:36:10;99940.03;;;13.27;69.53
14204;BME280;7185;51.854;6.622;2023-03-25T08:38:44;99946.28;;;13.24;69.12
14204;BME280;7185;51.854;6.622;2023-03-25T08:41:18;99942.25;;;13.15;69.12
14204;BME280;7185;51.854;6.622;2023-03-25T08:43:51;99949.94;;;12.98;69.95
14204;BME280;7185;51.854;6.622;2023-03-25T08:46:23;99945.31;;;13.27;70.99
14204;BME280;7185;51.854;6.622;2023-03-25T08:49:08;99967.25;;;12.81;72.15
14204;BME280;7185;51.854;6.622;2023-03-25T08:51:45;99952.94;;;12.65;73.41
14204;BME280;7185;51.854;6.622;2023-03-25T08:54:24;99952.88;;;12.90;72.92
14204;BME280;7185;51.854;6.622;2023-03-25T08:57:00;99962.69;;;13.08;73.14
14204;BME280;7185;51.854;6.622;2023-03-25T08:59:33;99958.81;;;12.95;73.32
14204;BME280;7185;51.854;6.622;2023-03-25T09:02:12;99951.72;;;12.97;73.39
14204;BME280;7185;51.854;6.622;2023-03-25T09:04:47;99948.22;;;13.43;71.77
14204;BME280;7185;51.854;6.622;2023-03-25T09:07:26;99960.53;;;13.42;69.66
14204;BME280;7185;51.854;6.622;2023-03-25T09:10:00;99947.47;;;13.61;69.71
14204;BME280;7185;51.854;6.622;2023-03-25T09:12:46;99955.94;;;13.90;69.53
14204;BME280;7185;51.854;6.622;2023-03-25T09:15:19;99963.25;;;14.04;70.49
14204;BME280;7185;51.854;6.622;2023-03-25T09:17:55;99950.97;;;13.39;69.09
14204;BME280;7185;51.854;6.622;2023-03-25T09:20:32;99942.75;;;13.90;68.82
14204;BME280;7185;51.854;6.622;2023-03-25T09:23:15;99953.13;;;14.55;67.32
14204;BME280;7185;51.854;6.622;2023-03-25T09:25:48;99944.00;;;14.23;65.61
14204;BME280;7185;51.854;6.622;2023-03-25T09:28:22;99951.91;;;14.23;65.10
14204;BME280;7185;51.854;6.622;2023-03-25T09:31:00;99948.69;;;14.56;65.12
14204;BME280;7185;51.854;6.622;2023-03-25T09:33:32;99960.78;;;14.41;65.98
14204;BME280;7185;51.854;6.622;2023-03-25T09:36:04;99959.88;;;14.21;65.27
14204;BME280;7185;51.854;6.622;2023-03-25T09:38:40;99953.59;;;14.24;64.69
14204;BME280;7185;51.854;6.622;2023-03-25T09:41:19;99967.56;;;15.05;63.51
14204;BME280;7185;51.854;6.622;2023-03-25T09:44:04;99945.31;;;15.11;63.02
14204;BME280;7185;51.854;6.622;2023-03-25T09:46:50;99943.00;;;15.22;61.76
14204;BME280;7185;51.854;6.622;2023-03-25T09:49:26;99961.75;;;16.07;59.81
14204;BME280;7185;51.854;6.622;2023-03-25T09:52:04;99957.09;;;15.95;60.00
14204;BME280;7185;51.854;6.622;2023-03-25T09:54:41;99966.13;;;15.17;61.15
14204;BME280;7185;51.854;6.622;2023-03-25T09:57:17;99958.66;;;14.89;62.41
14204;BME280;7185;51.854;6.622;2023-03-25T09:59:52;99966.59;;;15.99;61.55
14204;BME280;7185;51.854;6.622;2023-03-25T10:02:31;99969.00;;;16.03;60.69
14204;BME280;7185;51.854;6.622;2023-03-25T10:05:21;99973.78;;;15.77;61.28
14204;BME280;7185;51.854;6.622;2023-03-25T10:08:04;99979.50;;;15.87;60.88
14204;BME280;7185;51.854;6.622;2023-03-25T10:10:44;100002.28;;;15.71;61.11
14204;BME280;7185;51.854;6.622;2023-03-25T10:13:24;99982.03;;;15.16;63.35
14204;BME280;7185;51.854;6.622;2023-03-25T10:16:01;99982.25;;;15.67;62.46
14204;BME280;7185;51.854;6.622;2023-03-25T10:18:44;99987.06;;;15.58;63.74
14204;BME280;7185;51.854;6.622;2023-03-25T10:21:24;99984.66;;;15.35;63.40
14204;BME280;7185;51.854;6.622;2023-03-25T10:24:05;99988.53;;;15.27;65.87
14204;BME280;7185;51.854;6.622;2023-03-25T10:26:48;99981.25;;;15.33;64.39
14204;BME280;7185;51.854;6.622;2023-03-25T10:29:29;99980.19;;;14.98;65.30
14204;BME280;7185;51.854;6.622;2023-03-25T10:32:05;99972.88;;;15.42;65.05
14204;BME280;7185;51.854;6.622;2023-03-25T10:34:42;99966.66;;;15.43;64.43
14204;BME280;7185;51.854;6.622;2023-03-25T10:37:20;99958.41;;;15.32;63.73
14204;BME280;7185;51.854;6.622;2023-03-25T10:40:09;99952.84;;;15.38;63.08
14204;BME280;7185;51.854;6.622;2023-03-25T10:42:56;99965.44;;;14.94;63.49
14204;BME280;7185;51.854;6.622;2023-03-25T10:45:29;99955.28;;;15.23;62.67
14204;BME280;7185;51.854;6.622;2023-03-25T10:48:09;99956.69;;;15.30;61.81
14204;BME280;7185;51.854;6.622;2023-03-25T10:50:45;99973.22;;;14.58;68.38
14204;BME280;7185;51.854;6.622;2023-03-25T10:53:26;99995.06;;;13.99;72.17
14204;BME280;7185;51.854;6.622;2023-03-25T10:56:03;99990.06;;;13.04;73.76
14204;BME280;7185;51.854;6.622;2023-03-25T10:58:54;99998.59;;;12.38;79.15
14204;BME280;7185;51.854;6.622;2023-03-25T11:01:33;99995.34;;;12.55;80.03
14204;BME280;7185;51.854;6.622;2023-03-25T11:04:21;99993.50;;;12.34;81.24
14204;BME280;7185;51.854;6.622;2023-03-25T11:06:56;99981.72;;;12.69;81.47
14204;BME280;7185;51.854;6.622;2023-03-25T11:09:35;99996.22;;;13.71;80.97
14204;BME280;7185;51.854;6.622;2023-03-25T11:12:10;99989.81;;;15.38;75.21
14204;BME280;7185;51.854;6.622;2023-03-25T11:14:55;99972.28;;;16.60;72.04
14204;BME280;7185;51.854;6.622;2023-03-25T11:17:47;99979.59;;;17.20;65.83
14204;BME280;7185;51.854;6.622;2023-03-25T11:20:46;99964.81;;;17.32;63.66
14204;BME280;7185;51.854;6.622;2023-03-25T11:23:24;99970.25;;;17.91;61.64
14204;BME280;7185;51.854;6.622;2023-03-25T11:26:04;99979.31;;;18.03;59.80
14204;BME280;7185;51.854;6.622;2023-03-25T11:28:39;99975.91;;;18.15;56.28
14204;BME280;7185;51.854;6.622;2023-03-25T11:31:34;99972.53;;;18.86;56.78
14204;BME280;7185;51.854;6.622;2023-03-25T11:34:22;99960.88;;;19.30;54.90
14204;BME280;7185;51.854;6.622;2023-03-25T11:37:15;99972.72;;;19.39;53.67
14204;BME280;7185;51.854;6.622;2023-03-25T11:39:49;99977.78;;;18.73;54.13
14204;BME280;7185;51.854;6.622;2023-03-25T11:42:30;99970.53;;;19.04;54.45
14204;BME280;7185;51.854;6.622;2023-03-25T11:45:03;99975.97;;;18.59;56.39
14204;BME280;7185;51.854;6.622;2023-03-25T11:47:37;99973.00;;;17.90;57.21
14204;BME280;7185;51.854;6.622;2023-03-25T11:50:19;99970.16;;;16.82;59.19
14204;BME280;7185;51.854;6.622;2023-03-25T11:52:54;99953.34;;;17.47;60.24
14204;BME280;7185;51.854;6.622;2023-03-25T11:55:27;99966.34;;;17.82;58.23
14204;BME280;7185;51.854;6.622;2023-03-25T11:58:00;99949.50;;;18.28;56.58
14204;BME280;7185;51.854;6.622;2023-03-25T12:00:37;99953.22;;;18.55;53.33
14204;BME280;7185;51.854;6.622;2023-03-25T12:03:18;99951.06;;;19.18;54.10
14204;BME280;7185;51.854;6.622;2023-03-25T12:05:59;99941.22;;;19.60;50.29
14204;BME280;7185;51.854;6.622;2023-03-25T12:08:41;99956.22;;;19.61;49.93
14204;BME280;7185;51.854;6.622;2023-03-25T12:11:15;99952.28;;;20.20;48.62
14204;BME280;7185;51.854;6.622;2023-03-25T12:14:01;99955.09;;;18.96;50.61
14204;BME280;7185;51.854;6.622;2023-03-25T12:16:43;99949.31;;;18.17;53.94
14204;BME280;7185;51.854;6.622;2023-03-25T12:19:28;99966.91;;;16.77;55.71
14204;BME280;7185;51.854;6.622;2023-03-25T12:22:17;99966.91;;;16.77;56.67
14204;BME280;7185;51.854;6.622;2023-03-25T12:25:03;99968.16;;;16.36;58.26
14204;BME280;7185;51.854;6.622;2023-03-25T12:27:47;99959.19;;;16.56;56.87
14204;BME280;7185;51.854;6.622;2023-03-25T12:30:43;99947.66;;;16.24;56.27
14204;BME280;7185;51.854;6.622;2023-03-25T12:33:30;99968.72;;;15.73;58.81
14204;BME280;7185;51.854;6.622;2023-03-25T12:36:23;99978.28;;;15.75;58.78
14204;BME280;7185;51.854;6.622;2023-03-25T12:39:06;99990.53;;;14.84;63.01
14204;BME280;7185;51.854;6.622;2023-03-25T12:41:48;99978.63;;;15.33;62.52
14204;BME280;7185;51.854;6.622;2023-03-25T12:44:46;99965.63;;;16.84;58.59
14204;BME280;7185;51.854;6.622;2023-03-25T12:47:22;99952.66;;;18.64;52.53
14204;BME280;7185;51.854;6.622;2023-03-25T12:50:18;99958.53;;;17.65;54.21
14204;BME280;7185;51.854;6.622;2023-03-25T12:52:59;99947.63;;;17.86;54.51
14204;BME280;7185;51.854;6.622;2023-03-25T12:55:48;99943.72;;;17.91;54.74
14204;BME280;7185;51.854;6.622;2023-03-25T12:58:40;99931.56;;;18.90;50.34
14204;BME280;7185;51.854;6.622;2023-03-25T13:01:21;99926.63;;;20.45;47.86
14204;BME280;7185;51.854;6.622;2023-03-25T13:04:07;99930.75;;;19.44;46.40
14204;BME280;7185;51.854;6.622;2023-03-25T13:06:44;99937.72;;;20.38;46.38
14204;BME280;7185;51.854;6.622;2023-03-25T13:09:21;99948.44;;;19.98;45.74
14204;BME280;7185;51.854;6.622;2023-03-25T13:11:59;99947.34;;;18.64;48.36
14204;BME280;7185;51.854;6.622;2023-03-25T13:14:35;99945.22;;;18.11;49.22
14204;BME280;7185;51.854;6.622;2023-03-25T13:17:16;99947.56;;;17.25;52.45
14204;BME280;7185;51.854;6.622;2023-03-25T13:19:55;99936.75;;;18.05;49.71
14204;BME280;7185;51.854;6.622;2023-03-25T13:22:33;99930.59;;;19.05;46.67
14204;BME280;7185;51.854;6.622;2023-03-25T13:25:15;99939.19;;;18.53;48.55
14204;BME280;7185;51.854;6.622;2023-03-25T13:27:49;99955.09;;;18.82;48.74
14204;BME280;7185;51.854;6.622;2023-03-25T13:30:29;99947.41;;;18.48;50.79
14204;BME280;7185;51.854;6.622;2023-03-25T13:33:06;99935.06;;;18.76;51.50
14204;BME280;7185;51.854;6.622;2023-03-25T13:35:45;99943.00;;;18.90;50.62
14204;BME280;7185;51.854;6.622;2023-03-25T13:38:22;99939.75;;;18.29;51.92
14204;BME280;7185;51.854;6.622;2023-03-25T13:41:07;99948.72;;;18.12;53.11
14204;BME280;7185;51.854;6.622;2023-03-25T13:43:48;99968.16;;;17.82;53.62
14204;BME280;7185;51.854;6.622;2023-03-25T13:46:24;99962.84;;;17.19;55.23
14204;BME280;7185;51.854;6.622;2023-03-25T13:49:01;99958.84;;;16.63;56.66
14204;BME280;7185;51.854;6.622;2023-03-25T13:51:33;99956.88;;;17.00;57.69
14204;BME280;7185;51.854;6.622;2023-03-25T13:54:08;99951.59;;;17.62;55.54
14204;BME280;7185;51.854;6.622;2023-03-25T14:00:13;99978.31;;;16.11;59.96
14204;BME280;7185;51.854;6.622;2023-03-25T14:03:06;99977.09;;;15.64;63.44
14204;BME280;7185;51.854;6.622;2023-03-25T14:06:00;99978.50;;;15.71;65.65
14204;BME280;7185;51.854;6.622;2023-03-25T14:11:41;99977.22;;;15.43;68.79
14204;BME280;7185;51.854;6.622;2023-03-25T14:14:17;99977.16;;;16.16;66.56
14204;BME280;7185;51.854;6.622;2023-03-25T14:16:53;99979.09;;;16.97;63.39